sensor_id;sensor_type;location;lat;lon;timestamp;temperature;humidity
16229;DHT22;8222;51.462;12.630;2023-04-01T00:00:52;11.20;99.90
16229;DHT22;8222;51.462;12.630;2023-04-01T00:03:19;11.40;99.90
16229;DHT22;8222;51.462;12.630;2023-04-01T00:05:48;11.30;99.90
16229;DHT22;8222;51.462;12.630;2023-04-01T00:08:14;11.30;99.90
16229;DHT22;8222;51.462;12.630;2023-04-01T00:10:39;11.20;99.90
16229;DHT22;8222;51.462;12.630;2023-04-01T00:13:05;11.20;99.90
16229;DHT22;8222;51.462;12.630;2023-04-01T00:15:31;11.20;99.90
16229;DHT22;8222;51.462;12.630;2023-04-01T00:17:57;11.30;99.90
16229;DHT22;8222;51.462;12.630;2023-04-01T00:20:23;11.20;99.90
16229;DHT22;8222;51.462;12.630;2023-04-01T00:22:51;11.20;99.90
16229;DHT22;8222;51.462;12.630;2023-04-01T00:25:17;11.30;99.90
16229;DHT22;8222;51.462;12.630;2023-04-01T00:27:42;11.30;99.90
16229;DHT22;8222;51.462;12.630;2023-04-01T00:30:11;11.30;99.90
16229;DHT22;8222;51.462;12.630;2023-04-01T00:32:36;11.20;99.90
16229;DHT22;8222;51.462;12.630;2023-04-01T00:35:03;11.20;99.90
16229;DHT22;8222;51.462;12.630;2023-04-01T00:37:29;11.20;99.90
16229;DHT22;8222;51.462;12.630;2023-04-01T00:39:55;11.20;99.90
16229;DHT22;8222;51.462;12.630;2023-04-01T00:42:21;11.20;99.90
16229;DHT22;8222;51.462;12.630;2023-04-01T00:44:54;11.20;99.90
16229;DHT22;8222;51.462;12.630;2023-04-01T00:47:22;11.20;99.90
16229;DHT22;8222;51.462;12.630;2023-04-01T00:49:51;11.10;99.90
16229;DHT22;8222;51.462;12.630;2023-04-01T00:52:21;11.20;99.90
16229;DHT22;8222;51.462;12.630;2023-04-01T00:54:52;11.20;99.90
16229;DHT22;8222;51.462;12.630;2023-04-01T00:57:28;11.20;99.90
16229;DHT22;8222;51.462;12.630;2023-04-01T00:59:55;11.10;99.90
16229;DHT22;8222;51.462;12.630;2023-04-01T01:02:21;11.10;99.90
16229;DHT22;8222;51.462;12.630;2023-04-01T01:04:47;11.10;99.90
16229;DHT22;8222;51.462;12.630;2023-04-01T01:07:21;11.10;99.90
16229;DHT22;8222;51.462;12.630;2023-04-01T01:10:10;11.10;99.90
16229;DHT22;8222;51.462;12.630;2023-04-01T01:20:37;11.10;99.90
16229;DHT22;8222;51.462;12.630;2023-04-01T01:31:36;11.30;99.90
16229;DHT22;8222;51.462;12.630;2023-04-01T01:34:09;11.30;99.90
16229;DHT22;8222;51.462;12.630;2023-04-01T01:36:39;11.30;99.90
16229;DHT22;8222;51.462;12.630;2023-04-01T01:39:08;11.20;99.90
16229;DHT22;8222;51.462;12.630;2023-04-01T01:41:36;11.20;99.90
16229;DHT22;8222;51.462;12.630;2023-04-01T01:44:04;11.20;99.90
16229;DHT22;8222;51.462;12.630;2023-04-01T01:46:31;11.10;99.90
16229;DHT22;8222;51.462;12.630;2023-04-01T01:48:57;11.10;99.90
16229;DHT22;8222;51.462;12.630;2023-04-01T01:51:27;11.10;99.90
16229;DHT22;8222;51.462;12.630;2023-04-01T01:53:54;11.20;99.90
16229;DHT22;8222;51.462;12.630;2023-04-01T01:56:23;11.30;99.90
16229;DHT22;8222;51.462;12.630;2023-04-01T01:58:55;11.20;99.90
16229;DHT22;8222;51.462;12.630;2023-04-01T02:01:24;11.20;99.90
16229;DHT22;8222;51.462;12.630;2023-04-01T02:03:52;11.20;99.90
16229;DHT22;8222;51.462;12.630;2023-04-01T02:06:26;11.20;99.90
16229;DHT22;8222;51.462;12.630;2023-04-01T02:09:00;11.20;99.90
16229;DHT22;8222;51.462;12.630;2023-04-01T02:14:24;11.10;99.90
16229;DHT22;8222;51.462;12.630;2023-04-01T02:16:58;11.10;99.90
16229;DHT22;8222;51.462;12.630;2023-04-01T02:19:32;11.10;99.90
16229;DHT22;8222;51.462;12.630;2023-04-01T02:22:01;11.10;99.90
16229;DHT22;8222;51.462;12.630;2023-04-01T02:24:30;11.10;99.90
16229;DHT22;8222;51.462;12.630;2023-04-01T02:26:56;11.20;99.90
16229;DHT22;8222;51.462;12.630;2023-04-01T02:29:23;11.10;99.90
16229;DHT22;8222;51.462;12.630;2023-04-01T02:31:51;11.10;99.90
16229;DHT22;8222;51.462;12.630;2023-04-01T02:34:20;11.10;99.90
16229;DHT22;8222;51.462;12.630;2023-04-01T02:36:48;11.20;99.90
16229;DHT22;8222;51.462;12.630;2023-04-01T02:39:15;11.30;99.90
16229;DHT22;8222;51.462;12.630;2023-04-01T02:41:42;11.30;99.90
16229;DHT22;8222;51.462;12.630;2023-04-01T02:44:09;11.40;99.90
16229;DHT22;8222;51.462;12.630;2023-04-01T02:46:35;11.40;99.90
16229;DHT22;8222;51.462;12.630;2023-04-01T02:49:01;11.50;99.90
16229;DHT22;8222;51.462;12.630;2023-04-01T02:51:28;11.50;99.90
16229;DHT22;8222;51.462;12.630;2023-04-01T02:53:54;11.50;99.90
16229;DHT22;8222;51.462;12.630;2023-04-01T02:56:20;11.50;99.90
16229;DHT22;8222;51.462;12.630;2023-04-01T02:58:47;11.50;99.90
16229;DHT22;8222;51.462;12.630;2023-04-01T03:01:12;11.50;99.90
16229;DHT22;8222;51.462;12.630;2023-04-01T03:03:40;11.50;99.90
16229;DHT22;8222;51.462;12.630;2023-04-01T03:06:07;11.40;99.90
16229;DHT22;8222;51.462;12.630;2023-04-01T03:08:34;11.50;99.90
16229;DHT22;8222;51.462;12.630;2023-04-01T03:10:59;11.60;99.90
16229;DHT22;8222;51.462;12.630;2023-04-01T03:13:25;11.60;99.90
16229;DHT22;8222;51.462;12.630;2023-04-01T03:15:51;11.50;99.90
16229;DHT22;8222;51.462;12.630;2023-04-01T03:18:17;11.50;99.90
16229;DHT22;8222;51.462;12.630;2023-04-01T03:20:42;11.40;99.90
16229;DHT22;8222;51.462;12.630;2023-04-01T03:23:08;11.40;99.90
16229;DHT22;8222;51.462;12.630;2023-04-01T03:25:36;11.50;99.90
16229;DHT22;8222;51.462;12.630;2023-04-01T03:28:02;11.50;99.90
16229;DHT22;8222;51.462;12.630;2023-04-01T03:30:30;11.60;99.90
16229;DHT22;8222;51.462;12.630;2023-04-01T03:32:57;11.50;99.90
16229;DHT22;8222;51.462;12.630;2023-04-01T03:35:25;11.50;99.90
16229;DHT22;8222;51.462;12.630;2023-04-01T03:37:52;11.50;99.90
16229;DHT22;8222;51.462;12.630;2023-04-01T03:40:20;11.40;99.90
16229;DHT22;8222;51.462;12.630;2023-04-01T03:42:46;11.40;99.90
16229;DHT22;8222;51.462;12.630;2023-04-01T03:45:12;11.30;99.90
16229;DHT22;8222;51.462;12.630;2023-04-01T03:47:38;11.40;99.90
16229;DHT22;8222;51.462;12.630;2023-04-01T03:50:07;11.50;99.90
16229;DHT22;8222;51.462;12.630;2023-04-01T03:52:35;11.40;99.90
16229;DHT22;8222;51.462;12.630;2023-04-01T03:55:01;11.40;99.90
16229;DHT22;8222;51.462;12.630;2023-04-01T03:57:27;11.40;99.90
16229;DHT22;8222;51.462;12.630;2023-04-01T03:59:53;11.30;99.90
16229;DHT22;8222;51.462;12.630;2023-04-01T04:02:19;11.40;99.90
16229;DHT22;8222;51.462;12.630;2023-04-01T04:04:46;11.40;99.90
16229;DHT22;8222;51.462;12.630;2023-04-01T04:07:12;11.40;99.90
16229;DHT22;8222;51.462;12.630;2023-04-01T04:09:38;11.40;99.90
16229;DHT22;8222;51.462;12.630;2023-04-01T04:12:04;11.50;99.90
16229;DHT22;8222;51.462;12.630;2023-04-01T04:14:31;11.40;99.90
16229;DHT22;8222;51.462;12.630;2023-04-01T04:16:56;11.40;99.90
16229;DHT22;8222;51.462;12.630;2023-04-01T04:19:22;11.40;99.90
16229;DHT22;8222;51.462;12.630;2023-04-01T04:21:48;11.30;99.90
16229;DHT22;8222;51.462;12.630;2023-04-01T04:24:15;11.40;99.90
16229;DHT22;8222;51.462;12.630;2023-04-01T04:26:44;11.30;99.90
16229;DHT22;8222;51.462;12.630;2023-04-01T04:29:10;11.30;99.90
16229;DHT22;8222;51.462;12.630;2023-04-01T04:31:35;11.20;99.90
16229;DHT22;8222;51.462;12.630;2023-04-01T04:34:03;11.20;99.90
16229;DHT22;8222;51.462;12.630;2023-04-01T04:36:29;11.20;99.90
16229;DHT22;8222;51.462;12.630;2023-04-01T04:38:55;11.20;99.90
16229;DHT22;8222;51.462;12.630;2023-04-01T04:41:20;11.20;99.90
16229;DHT22;8222;51.462;12.630;2023-04-01T04:43:55;11.20;99.90
16229;DHT22;8222;51.462;12.630;2023-04-01T04:46:22;11.20;99.90
16229;DHT22;8222;51.462;12.630;2023-04-01T04:48:49;11.20;99.90
16229;DHT22;8222;51.462;12.630;2023-04-01T04:51:18;11.20;99.90
16229;DHT22;8222;51.462;12.630;2023-04-01T04:53:45;11.20;99.90
16229;DHT22;8222;51.462;12.630;2023-04-01T04:56:16;11.20;99.90
16229;DHT22;8222;51.462;12.630;2023-04-01T04:58:42;11.20;99.90
16229;DHT22;8222;51.462;12.630;2023-04-01T05:01:10;11.20;99.90
16229;DHT22;8222;51.462;12.630;2023-04-01T05:03:36;11.30;99.90
16229;DHT22;8222;51.462;12.630;2023-04-01T05:06:03;11.30;99.90
16229;DHT22;8222;51.462;12.630;2023-04-01T05:08:29;11.30;99.90
16229;DHT22;8222;51.462;12.630;2023-04-01T05:10:54;11.30;99.90
16229;DHT22;8222;51.462;12.630;2023-04-01T05:13:20;11.30;99.90
16229;DHT22;8222;51.462;12.630;2023-04-01T05:15:48;11.30;99.90
16229;DHT22;8222;51.462;12.630;2023-04-01T05:18:14;11.30;99.90
16229;DHT22;8222;51.462;12.630;2023-04-01T05:20:45;11.30;99.90
16229;DHT22;8222;51.462;12.630;2023-04-01T05:23:10;11.20;99.90
16229;DHT22;8222;51.462;12.630;2023-04-01T05:25:38;11.20;99.90
16229;DHT22;8222;51.462;12.630;2023-04-01T05:28:05;11.30;99.90
16229;DHT22;8222;51.462;12.630;2023-04-01T05:30:30;11.40;99.90
16229;DHT22;8222;51.462;12.630;2023-04-01T05:32:56;11.40;99.90
16229;DHT22;8222;51.462;12.630;2023-04-01T05:35:22;11.40;99.90
16229;DHT22;8222;51.462;12.630;2023-04-01T05:37:48;11.50;99.90
16229;DHT22;8222;51.462;12.630;2023-04-01T05:40:18;11.50;99.90
16229;DHT22;8222;51.462;12.630;2023-04-01T05:42:43;11.50;99.90
16229;DHT22;8222;51.462;12.630;2023-04-01T05:45:10;11.50;99.90
16229;DHT22;8222;51.462;12.630;2023-04-01T05:47:35;11.50;99.90
16229;DHT22;8222;51.462;12.630;2023-04-01T05:50:01;11.60;99.90
16229;DHT22;8222;51.462;12.630;2023-04-01T05:52:27;11.80;99.90
16229;DHT22;8222;51.462;12.630;2023-04-01T05:54:52;11.80;99.90
16229;DHT22;8222;51.462;12.630;2023-04-01T05:57:20;11.90;99.90
16229;DHT22;8222;51.462;12.630;2023-04-01T05:59:46;12.10;99.90
16229;DHT22;8222;51.462;12.630;2023-04-01T06:02:12;12.10;99.90
16229;DHT22;8222;51.462;12.630;2023-04-01T06:04:40;12.30;99.90
16229;DHT22;8222;51.462;12.630;2023-04-01T06:07:14;12.20;99.90
16229;DHT22;8222;51.462;12.630;2023-04-01T06:09:40;12.20;99.90
16229;DHT22;8222;51.462;12.630;2023-04-01T06:15:13;12.20;99.90
16229;DHT22;8222;51.462;12.630;2023-04-01T06:18:02;12.20;99.90
16229;DHT22;8222;51.462;12.630;2023-04-01T06:20:46;12.30;99.90
16229;DHT22;8222;51.462;12.630;2023-04-01T06:40:39;12.50;99.90
16229;DHT22;8222;51.462;12.630;2023-04-01T06:46:28;12.60;99.90
16229;DHT22;8222;51.462;12.630;2023-04-01T06:54:30;12.90;99.90
16229;DHT22;8222;51.462;12.630;2023-04-01T06:57:04;12.90;99.90
16229;DHT22;8222;51.462;12.630;2023-04-01T06:59:33;12.90;99.90
16229;DHT22;8222;51.462;12.630;2023-04-01T07:04:45;13.20;99.90
16229;DHT22;8222;51.462;12.630;2023-04-01T07:07:38;13.20;99.90
16229;DHT22;8222;51.462;12.630;2023-04-01T07:10:19;13.40;99.90
16229;DHT22;8222;51.462;12.630;2023-04-01T07:12:54;13.70;99.90
16229;DHT22;8222;51.462;12.630;2023-04-01T07:15:24;13.70;99.90
16229;DHT22;8222;51.462;12.630;2023-04-01T07:17:57;13.70;99.90
16229;DHT22;8222;51.462;12.630;2023-04-01T07:20:30;13.90;99.90
16229;DHT22;8222;51.462;12.630;2023-04-01T07:22:59;14.10;99.90
16229;DHT22;8222;51.462;12.630;2023-04-01T07:25:27;14.10;99.90
16229;DHT22;8222;51.462;12.630;2023-04-01T07:28:05;14.10;99.90
16229;DHT22;8222;51.462;12.630;2023-04-01T07:52:26;14.40;99.90
16229;DHT22;8222;51.462;12.630;2023-04-01T07:54:59;14.30;99.90
16229;DHT22;8222;51.462;12.630;2023-04-01T08:01:05;14.30;99.90
16229;DHT22;8222;51.462;12.630;2023-04-01T08:03:56;14.40;99.90
16229;DHT22;8222;51.462;12.630;2023-04-01T08:22:57;14.10;99.90
16229;DHT22;8222;51.462;12.630;2023-04-01T08:25:28;14.20;99.90
16229;DHT22;8222;51.462;12.630;2023-04-01T08:28:03;14.10;99.90
16229;DHT22;8222;51.462;12.630;2023-04-01T08:33:26;14.50;99.90
16229;DHT22;8222;51.462;12.630;2023-04-01T08:36:12;14.40;99.90
16229;DHT22;8222;51.462;12.630;2023-04-01T08:38:51;14.30;99.90
16229;DHT22;8222;51.462;12.630;2023-04-01T08:57:21;15.20;99.90
16229;DHT22;8222;51.462;12.630;2023-04-01T09:03:14;15.70;99.90
16229;DHT22;8222;51.462;12.630;2023-04-01T09:21:51;16.40;99.90
16229;DHT22;8222;51.462;12.630;2023-04-01T09:24:40;16.50;99.90
16229;DHT22;8222;51.462;12.630;2023-04-01T09:38:35;17.00;99.90
16229;DHT22;8222;51.462;12.630;2023-04-01T09:46:54;17.40;99.90
16229;DHT22;8222;51.462;12.630;2023-04-01T09:49:41;17.80;99.90
16229;DHT22;8222;51.462;12.630;2023-04-01T10:07:08;17.00;99.90
16229;DHT22;8222;51.462;12.630;2023-04-01T10:10:06;17.10;99.90
16229;DHT22;8222;51.462;12.630;2023-04-01T10:15:45;18.00;99.90
16229;DHT22;8222;51.462;12.630;2023-04-01T10:18:46;17.90;99.90
16229;DHT22;8222;51.462;12.630;2023-04-01T10:27:21;17.80;99.90
16229;DHT22;8222;51.462;12.630;2023-04-01T11:12:38;16.70;99.90
16229;DHT22;8222;51.462;12.630;2023-04-01T11:34:02;15.70;99.90
16229;DHT22;8222;51.462;12.630;2023-04-01T11:42:20;15.60;99.90
16229;DHT22;8222;51.462;12.630;2023-04-01T12:05:27;15.40;99.90
16229;DHT22;8222;51.462;12.630;2023-04-01T12:16:21;15.70;99.90
16229;DHT22;8222;51.462;12.630;2023-04-01T12:30:02;15.90;99.90
16229;DHT22;8222;51.462;12.630;2023-04-01T12:35:17;16.30;99.90
16229;DHT22;8222;51.462;12.630;2023-04-01T12:37:51;15.70;99.90
16229;DHT22;8222;51.462;12.630;2023-04-01T12:43:05;15.70;99.90
16229;DHT22;8222;51.462;12.630;2023-04-01T12:56:55;15.40;99.90
16229;DHT22;8222;51.462;12.630;2023-04-01T13:02:44;15.40;99.90
16229;DHT22;8222;51.462;12.630;2023-04-01T13:16:31;15.70;99.90
16229;DHT22;8222;51.462;12.630;2023-04-01T13:19:19;15.70;99.90
16229;DHT22;8222;51.462;12.630;2023-04-01T13:22:04;16.00;99.90
16229;DHT22;8222;51.462;12.630;2023-04-01T13:27:25;16.10;99.90
16229;DHT22;8222;51.462;12.630;2023-04-01T13:38:20;16.10;99.90
16229;DHT22;8222;51.462;12.630;2023-04-01T13:43:43;16.30;99.90
16229;DHT22;8222;51.462;12.630;2023-04-01T13:46:22;16.70;99.90
16229;DHT22;8222;51.462;12.630;2023-04-01T14:00:27;17.10;99.90
16229;DHT22;8222;51.462;12.630;2023-04-01T14:08:29;17.20;99.90
16229;DHT22;8222;51.462;12.630;2023-04-01T14:11:07;17.20;99.90
16229;DHT22;8222;51.462;12.630;2023-04-01T14:28:08;16.40;99.90
16229;DHT22;8222;51.462;12.630;2023-04-01T14:38:47;16.20;99.90
16229;DHT22;8222;51.462;12.630;2023-04-01T14:49:21;16.00;99.90
16229;DHT22;8222;51.462;12.630;2023-04-01T14:51:48;16.00;99.90
16229;DHT22;8222;51.462;12.630;2023-04-01T14:54:31;16.00;99.90
16229;DHT22;8222;51.462;12.630;2023-04-01T14:57:25;16.10;99.90
16229;DHT22;8222;51.462;12.630;2023-04-01T15:00:17;16.00;99.90
16229;DHT22;8222;51.462;12.630;2023-04-01T15:08:18;16.00;99.90
16229;DHT22;8222;51.462;12.630;2023-04-01T15:16:18;15.70;99.90
16229;DHT22;8222;51.462;12.630;2023-04-01T15:24:21;15.50;99.90
16229;DHT22;8222;51.462;12.630;2023-04-01T15:32:21;15.50;99.90
16229;DHT22;8222;51.462;12.630;2023-04-01T15:38:02;15.60;99.90
16229;DHT22;8222;51.462;12.630;2023-04-01T15:43:44;15.20;99.90
16229;DHT22;8222;51.462;12.630;2023-04-01T15:55:13;15.00;99.90
16229;DHT22;8222;51.462;12.630;2023-04-01T15:58:06;15.30;99.90
16229;DHT22;8222;51.462;12.630;2023-04-01T16:07:01;15.30;99.90
16229;DHT22;8222;51.462;12.630;2023-04-01T16:12:07;15.20;99.90
16229;DHT22;8222;51.462;12.630;2023-04-01T16:20:20;15.00;99.90
16229;DHT22;8222;51.462;12.630;2023-04-01T16:23:16;15.10;99.90
16229;DHT22;8222;51.462;12.630;2023-04-01T16:28:42;15.10;99.90
16229;DHT22;8222;51.462;12.630;2023-04-01T16:41:52;14.70;99.90
16229;DHT22;8222;51.462;12.630;2023-04-01T16:44:25;14.60;99.90
16229;DHT22;8222;51.462;12.630;2023-04-01T16:46:58;14.50;99.90
16229;DHT22;8222;51.462;12.630;2023-04-01T16:57:30;14.20;99.90
16229;DHT22;8222;51.462;12.630;2023-04-01T17:11:19;13.90;99.90
16229;DHT22;8222;51.462;12.630;2023-04-01T17:17:05;13.80;99.90
16229;DHT22;8222;51.462;12.630;2023-04-01T17:22:55;13.70;99.90
16229;DHT22;8222;51.462;12.630;2023-04-01T17:25:51;13.80;99.90
16229;DHT22;8222;51.462;12.630;2023-04-01T17:33:25;13.80;99.90
16229;DHT22;8222;51.462;12.630;2023-04-01T17:41:50;13.50;99.90
16229;DHT22;8222;51.462;12.630;2023-04-01T17:47:17;13.20;99.90
16229;DHT22;8222;51.462;12.630;2023-04-01T17:58:19;12.80;99.90
16229;DHT22;8222;51.462;12.630;2023-04-01T18:00:58;12.70;99.90
16229;DHT22;8222;51.462;12.630;2023-04-01T18:20:54;11.80;99.90
16229;DHT22;8222;51.462;12.630;2023-04-01T18:23:23;11.60;99.90
16229;DHT22;8222;51.462;12.630;2023-04-01T18:25:53;11.50;99.90
16229;DHT22;8222;51.462;12.630;2023-04-01T18:28:49;11.60;99.90
16229;DHT22;8222;51.462;12.630;2023-04-01T18:31:35;11.40;99.90
16229;DHT22;8222;51.462;12.630;2023-04-01T18:34:10;11.40;99.90
16229;DHT22;8222;51.462;12.630;2023-04-01T18:36:40;11.20;99.90
16229;DHT22;8222;51.462;12.630;2023-04-01T18:45:30;11.10;99.90
16229;DHT22;8222;51.462;12.630;2023-04-01T18:50:56;10.90;99.90
16229;DHT22;8222;51.462;12.630;2023-04-01T18:53:38;10.80;99.90
16229;DHT22;8222;51.462;12.630;2023-04-01T18:56:10;10.70;99.90
16229;DHT22;8222;51.462;12.630;2023-04-01T18:59:01;10.60;99.90
16229;DHT22;8222;51.462;12.630;2023-04-01T19:02:01;10.60;99.90
16229;DHT22;8222;51.462;12.630;2023-04-01T19:07:43;10.40;99.90
16229;DHT22;8222;51.462;12.630;2023-04-01T19:21:19;10.20;99.90
16229;DHT22;8222;51.462;12.630;2023-04-01T19:34:12;10.20;99.90
16229;DHT22;8222;51.462;12.630;2023-04-01T19:39:45;10.10;99.90
16229;DHT22;8222;51.462;12.630;2023-04-01T19:47:59;9.80;99.90
16229;DHT22;8222;51.462;12.630;2023-04-01T19:50:37;9.90;99.90
16229;DHT22;8222;51.462;12.630;2023-04-01T19:55:54;9.70;99.90
16229;DHT22;8222;51.462;12.630;2023-04-01T20:01:03;9.70;99.90
16229;DHT22;8222;51.462;12.630;2023-04-01T20:06:55;9.50;99.90
16229;DHT22;8222;51.462;12.630;2023-04-01T20:12:15;9.50;99.90
16229;DHT22;8222;51.462;12.630;2023-04-01T20:14:54;9.50;99.90
16229;DHT22;8222;51.462;12.630;2023-04-01T20:20:19;9.40;99.90
16229;DHT22;8222;51.462;12.630;2023-04-01T20:28:04;9.30;99.90
16229;DHT22;8222;51.462;12.630;2023-04-01T20:38:58;9.10;99.90
16229;DHT22;8222;51.462;12.630;2023-04-01T20:44:12;8.90;99.90
16229;DHT22;8222;51.462;12.630;2023-04-01T20:57:16;8.80;99.90
16229;DHT22;8222;51.462;12.630;2023-04-01T21:00:31;8.70;99.90
16229;DHT22;8222;51.462;12.630;2023-04-01T21:03:10;8.80;99.90
16229;DHT22;8222;51.462;12.630;2023-04-01T21:08:53;8.60;99.90
16229;DHT22;8222;51.462;12.630;2023-04-01T21:20:42;8.30;99.90
16229;DHT22;8222;51.462;12.630;2023-04-01T21:23:35;8.20;99.90
16229;DHT22;8222;51.462;12.630;2023-04-01T21:35:02;8.20;99.90
16229;DHT22;8222;51.462;12.630;2023-04-01T21:44:00;8.20;99.90
16229;DHT22;8222;51.462;12.630;2023-04-01T21:47:08;8.10;99.90
16229;DHT22;8222;51.462;12.630;2023-04-01T21:53:09;7.80;99.90
16229;DHT22;8222;51.462;12.630;2023-04-01T22:04:23;7.30;99.90
16229;DHT22;8222;51.462;12.630;2023-04-01T22:09:32;7.20;99.90
16229;DHT22;8222;51.462;12.630;2023-04-01T22:12:12;7.20;99.90
16229;DHT22;8222;51.462;12.630;2023-04-01T22:30:50;7.10;99.90
16229;DHT22;8222;51.462;12.630;2023-04-01T22:33:44;7.10;99.90
16229;DHT22;8222;51.462;12.630;2023-04-01T22:36:42;7.00;99.90
16229;DHT22;8222;51.462;12.630;2023-04-01T22:44:30;7.10;99.90
16229;DHT22;8222;51.462;12.630;2023-04-01T22:49:41;7.00;99.90
16229;DHT22;8222;51.462;12.630;2023-04-01T22:52:20;7.00;99.90
16229;DHT22;8222;51.462;12.630;2023-04-01T22:54:56;7.10;99.90
16229;DHT22;8222;51.462;12.630;2023-04-01T23:03:27;7.00;99.90
16229;DHT22;8222;51.462;12.630;2023-04-01T23:06:02;7.10;99.90
16229;DHT22;8222;51.462;12.630;2023-04-01T23:08:48;7.10;99.90
16229;DHT22;8222;51.462;12.630;2023-04-01T23:11:22;7.10;99.90
16229;DHT22;8222;51.462;12.630;2023-04-01T23:13:59;7.20;99.90
16229;DHT22;8222;51.462;12.630;2023-04-01T23:16:33;7.00;99.90
16229;DHT22;8222;51.462;12.630;2023-04-01T23:24:36;6.70;99.90
16229;DHT22;8222;51.462;12.630;2023-04-01T23:27:08;6.60;99.90
16229;DHT22;8222;51.462;12.630;2023-04-01T23:29:37;6.60;99.90
16229;DHT22;8222;51.462;12.630;2023-04-01T23:32:23;6.60;99.90
16229;DHT22;8222;51.462;12.630;2023-04-01T23:34:56;6.60;99.90
16229;DHT22;8222;51.462;12.630;2023-04-01T23:37:24;6.60;99.90
16229;DHT22;8222;51.462;12.630;2023-04-01T23:39:54;6.70;99.90
16229;DHT22;8222;51.462;12.630;2023-04-01T23:42:32;6.60;99.90
16229;DHT22;8222;51.462;12.630;2023-04-01T23:45:02;6.60;99.90
16229;DHT22;8222;51.462;12.630;2023-04-01T23:47:35;6.60;99.90
16229;DHT22;8222;51.462;12.630;2023-04-01T23:50:13;6.80;99.90
16229;DHT22;8222;51.462;12.630;2023-04-01T23:52:43;6.90;99.90
16229;DHT22;8222;51.462;12.630;2023-04-01T23:55:19;6.50;99.90
